Terminal Aerodrome Forecast
Issued by NWS Cleveland, OH

Home | Current Version | Previous Version | Graphics & Text | Print | Product List | Glossary On
Versions: 1 2 3 4 5 6 7 8 9 10 11 12 13 14 15 16 17 18 19 20 21
000
FTUS41 KCLE 240300 AAB
TAFCAK
TAF AMD
KCAK 240303Z 2403/2424 04007KT P6SM -SN OVC045
     FM240600 05005KT P6SM BKN060
     FM241200 06006KT P6SM SCT080 BKN250
     FM241800 06006KT P6SM SKC=

USA.gov is the U.S. government's official web portal to all federal, state and local government web resources and services.